createdAt,value
2023-01-29T00:02:21.647Z,99297.91
2023-01-29T00:04:48.052Z,99304.72
2023-01-29T00:07:14.532Z,99309.72
2023-01-29T00:09:40.823Z,99309.97
2023-01-29T00:12:07.731Z,99303.16
2023-01-29T00:14:34.228Z,99295.88
2023-01-29T00:17:01.256Z,99299.22
2023-01-29T00:19:27.830Z,99302.66
2023-01-29T00:21:54.149Z,99305.16
2023-01-29T00:24:20.564Z,99298.59
2023-01-29T00:26:47.034Z,99297.69
2023-01-29T00:29:13.361Z,99294.47
2023-01-29T00:31:39.763Z,99288.75
2023-01-29T00:34:06.079Z,99282.50
2023-01-29T00:36:32.452Z,99286.56
2023-01-29T00:39:00.688Z,99289.59
2023-01-29T00:41:29.417Z,99289.97
2023-01-29T00:43:56.139Z,99277.97
2023-01-29T00:46:22.511Z,99281.00
2023-01-29T00:48:48.811Z,99284.56
2023-01-29T00:51:15.098Z,99287.22
2023-01-29T00:53:41.372Z,99280.34
2023-01-29T00:56:07.654Z,99278.66
2023-01-29T00:58:33.965Z,99273.66
2023-01-29T01:01:03.012Z,99275.06
2023-01-29T01:03:30.001Z,99272.00
2023-01-29T01:06:03.924Z,99269.75
2023-01-29T01:08:30.217Z,99281.06
2023-01-29T01:11:01.923Z,99276.06
2023-01-29T01:13:28.975Z,99273.56
2023-01-29T01:15:55.274Z,99267.72
2023-01-29T01:18:21.583Z,99272.00
2023-01-29T01:20:48.181Z,99274.75
2023-01-29T01:23:14.454Z,99283.97
2023-01-29T01:25:41.126Z,99281.22
2023-01-29T01:28:08.581Z,99282.91
2023-01-29T01:30:34.860Z,99277.84
2023-01-29T01:33:01.140Z,99277.50
2023-01-29T01:35:27.629Z,99268.91
2023-01-29T01:37:54.005Z,99267.03
2023-01-29T01:40:22.177Z,99272.59
2023-01-29T01:42:50.629Z,99273.44
2023-01-29T01:45:35.654Z,99271.06
2023-01-29T01:48:22.316Z,99269.47
2023-01-29T01:50:51.514Z,99279.81
2023-01-29T01:53:24.357Z,99278.38
2023-01-29T01:55:56.011Z,99278.81
2023-01-29T01:58:31.610Z,99277.50
2023-01-29T02:00:59.014Z,99273.22
2023-01-29T02:03:27.831Z,99279.75
2023-01-29T02:05:57.154Z,99274.75
2023-01-29T02:08:34.761Z,99276.88
2023-01-29T02:11:01.301Z,99273.78
2023-01-29T02:13:27.641Z,99275.34
2023-01-29T02:15:53.920Z,99275.91
2023-01-29T02:18:21.520Z,99274.91
2023-01-29T02:21:18.781Z,99273.84
2023-01-29T02:24:11.410Z,99276.97
2023-01-29T02:27:07.098Z,99276.97
2023-01-29T02:29:44.357Z,99273.34
2023-01-29T02:32:39.070Z,99274.91
2023-01-29T02:35:45.124Z,99267.38
2023-01-29T02:38:24.949Z,99267.25
2023-01-29T02:41:06.246Z,99263.38
2023-01-29T02:43:55.742Z,99251.88
2023-01-29T02:46:46.412Z,99263.25
2023-01-29T02:49:30.731Z,99260.28
2023-01-29T02:52:11.859Z,99268.84
2023-01-29T02:54:46.746Z,99253.16
2023-01-29T02:57:35.090Z,99260.00
2023-01-29T03:00:27.739Z,99259.66
2023-01-29T03:03:06.876Z,99265.28
2023-01-29T03:05:58.467Z,99259.72
2023-01-29T03:08:32.693Z,99265.03
2023-01-29T03:11:03.670Z,99266.94
2023-01-29T03:14:06.327Z,99265.16
2023-01-29T03:16:41.858Z,99273.41
2023-01-29T03:19:28.342Z,99274.78
2023-01-29T03:21:58.043Z,99275.72
2023-01-29T03:24:42.382Z,99283.34
2023-01-29T03:27:12.779Z,99284.84
2023-01-29T03:29:42.279Z,99288.63
2023-01-29T03:32:10.301Z,99286.13
2023-01-29T03:34:50.267Z,99285.19
2023-01-29T03:37:29.329Z,99283.91
2023-01-29T03:39:55.911Z,99286.19
2023-01-29T03:42:28.723Z,99291.31
2023-01-29T03:45:04.067Z,99292.97
2023-01-29T03:47:50.357Z,99286.50
2023-01-29T03:50:47.780Z,99282.28
2023-01-29T03:53:24.736Z,99291.59
2023-01-29T03:56:08.927Z,99289.28
2023-01-29T03:58:44.555Z,99292.56
2023-01-29T04:01:20.454Z,99288.56
2023-01-29T04:03:58.474Z,99282.28
2023-01-29T04:06:29.818Z,99283.03
2023-01-29T04:09:12.256Z,99296.31
2023-01-29T04:11:44.999Z,99305.03
2023-01-29T04:14:12.270Z,99291.88
2023-01-29T04:16:41.864Z,99298.41
2023-01-29T04:19:08.247Z,99304.78
2023-01-29T04:21:35.446Z,99304.13
2023-01-29T04:24:01.791Z,99304.50
2023-01-29T04:26:28.039Z,99309.28
2023-01-29T04:29:18.269Z,99306.66
2023-01-29T04:32:13.504Z,99307.50
2023-01-29T04:35:17.384Z,99290.66
2023-01-29T04:38:11.853Z,99282.28
2023-01-29T04:41:05.215Z,99276.22
2023-01-29T04:43:56.200Z,99283.53
2023-01-29T04:46:56.396Z,99280.00
2023-01-29T04:49:39.199Z,99287.81
2023-01-29T04:52:14.243Z,99295.31
2023-01-29T04:54:43.160Z,99299.59
2023-01-29T04:57:17.957Z,99297.78
2023-01-29T04:59:55.658Z,99296.31
2023-01-29T05:02:24.547Z,99293.50
2023-01-29T05:04:52.649Z,99281.03
2023-01-29T05:07:20.575Z,99272.50
2023-01-29T05:09:47.442Z,99280.97
2023-01-29T05:12:17.298Z,99277.88
2023-01-29T05:14:45.795Z,99273.78
2023-01-29T05:17:18.679Z,99273.44
2023-01-29T05:19:46.477Z,99272.38
2023-01-29T05:22:16.737Z,99277.13
2023-01-29T05:24:43.196Z,99278.00
2023-01-29T05:27:17.307Z,99271.19
2023-01-29T05:29:45.865Z,99272.25
2023-01-29T05:32:12.495Z,99270.00
2023-01-29T05:34:38.779Z,99264.09
2023-01-29T05:37:05.242Z,99264.16
2023-01-29T05:39:31.525Z,99258.56
2023-01-29T05:41:57.816Z,99251.69
2023-01-29T05:44:24.142Z,99248.00
2023-01-29T05:46:50.933Z,99248.09
2023-01-29T05:49:18.259Z,99248.22
2023-01-29T05:51:44.594Z,99245.59
2023-01-29T05:54:12.236Z,99242.16
2023-01-29T05:56:39.305Z,99231.22
2023-01-29T05:59:06.171Z,99232.16
2023-01-29T06:01:32.678Z,99234.91
2023-01-29T06:03:59.034Z,99230.09
2023-01-29T06:06:25.365Z,99236.97
2023-01-29T06:08:51.622Z,99244.91
2023-01-29T06:11:18.092Z,99240.88
2023-01-29T06:13:45.361Z,99240.88
2023-01-29T06:16:13.110Z,99237.53
2023-01-29T06:18:40.651Z,99240.16
2023-01-29T06:21:10.046Z,99237.75
2023-01-29T06:23:36.939Z,99242.13
2023-01-29T06:26:06.323Z,99244.47
2023-01-29T06:28:33.157Z,99236.97
2023-01-29T06:31:19.993Z,99254.31
2023-01-29T06:33:48.184Z,99252.88
2023-01-29T06:36:14.555Z,99246.22
2023-01-29T06:38:40.912Z,99243.72
2023-01-29T06:41:12.006Z,99243.28
2023-01-29T06:43:39.188Z,99253.53
2023-01-29T06:46:08.157Z,99254.78
2023-01-29T06:48:34.803Z,99260.75
2023-01-29T06:51:05.965Z,99264.00
2023-01-29T06:53:33.896Z,99261.22
2023-01-29T06:56:00.242Z,99264.16
2023-01-29T06:58:26.631Z,99276.28
2023-01-29T07:00:53.076Z,99280.28
2023-01-29T07:03:19.381Z,99288.66
2023-01-29T07:05:52.570Z,99280.53
2023-01-29T07:08:19.343Z,99281.59
2023-01-29T07:10:45.610Z,99283.47
2023-01-29T07:13:11.878Z,99291.50
2023-01-29T07:15:38.350Z,99282.38
2023-01-29T07:18:04.691Z,99289.69
2023-01-29T07:20:31.294Z,99294.13
2023-01-29T07:22:58.175Z,99299.22
2023-01-29T07:25:25.610Z,99294.97
2023-01-29T07:27:52.021Z,99295.34
2023-01-29T07:30:18.782Z,99289.81
2023-01-29T07:32:45.303Z,99289.59
2023-01-29T07:35:11.669Z,99277.84
2023-01-29T07:37:37.945Z,99282.25
2023-01-29T07:40:04.930Z,99287.53
2023-01-29T07:42:31.244Z,99286.59
2023-01-29T07:44:57.616Z,99285.00
2023-01-29T07:47:23.938Z,99277.72
2023-01-29T07:49:50.190Z,99281.06
2023-01-29T07:52:16.506Z,99281.31
2023-01-29T07:54:42.825Z,99288.00
2023-01-29T07:57:09.154Z,99293.00
2023-01-29T07:59:35.412Z,99295.03
2023-01-29T08:02:01.785Z,99293.34
2023-01-29T08:04:28.182Z,99300.25
2023-01-29T08:06:54.455Z,99308.13
2023-01-29T08:09:20.748Z,99310.25
2023-01-29T08:11:47.091Z,99317.53
2023-01-29T08:14:13.441Z,99314.19
2023-01-29T08:16:39.701Z,99320.03
2023-01-29T08:19:06.024Z,99324.31
2023-01-29T08:21:32.311Z,99324.97
2023-01-29T08:23:58.780Z,99327.72
2023-01-29T08:26:25.103Z,99329.84
2023-01-29T08:28:51.511Z,99331.88
2023-01-29T08:31:18.952Z,99327.00
2023-01-29T08:33:45.277Z,99332.94
2023-01-29T08:36:11.708Z,99341.75
2023-01-29T08:38:38.327Z,99330.69
2023-01-29T08:41:04.881Z,99321.28
2023-01-29T08:43:31.182Z,99322.03
2023-01-29T08:45:57.616Z,99316.94
2023-01-29T08:48:23.907Z,99320.63
2023-01-29T08:50:50.167Z,99336.13
2023-01-29T08:53:16.583Z,99338.50
2023-01-29T08:55:42.865Z,99338.41
2023-01-29T08:58:11.259Z,99336.84
2023-01-29T09:00:38.081Z,99334.56
2023-01-29T09:03:04.693Z,99333.88
2023-01-29T09:05:31.006Z,99319.94
2023-01-29T09:07:57.459Z,99318.50
2023-01-29T09:10:23.762Z,99315.91
2023-01-29T09:12:50.066Z,99324.69
2023-01-29T09:15:16.792Z,99325.28
2023-01-29T09:17:43.214Z,99320.84
2023-01-29T09:20:10.457Z,99318.56
2023-01-29T09:22:36.805Z,99316.16
2023-01-29T09:25:04.113Z,99316.94
2023-01-29T09:27:30.552Z,99317.50
2023-01-29T09:29:56.851Z,99314.44
2023-01-29T09:32:49.690Z,99306.81
2023-01-29T09:35:09.783Z,99317.31
2023-01-29T09:37:36.047Z,99306.19
2023-01-29T09:40:02.365Z,99300.22
2023-01-29T09:42:37.972Z,99302.97
2023-01-29T09:45:23.047Z,99297.63
2023-01-29T09:47:49.354Z,99299.00
2023-01-29T09:50:42.310Z,99292.13
2023-01-29T09:53:28.844Z,99294.22
2023-01-29T09:56:11.144Z,99287.50
2023-01-29T09:58:40.897Z,99276.88
2023-01-29T10:01:17.552Z,99290.84
2023-01-29T10:04:07.747Z,99283.53
2023-01-29T10:07:16.788Z,99273.44
2023-01-29T10:10:00.850Z,99265.34
2023-01-29T10:12:53.427Z,99272.41
2023-01-29T10:15:28.810Z,99268.44
2023-01-29T10:18:16.942Z,99271.13
2023-01-29T10:21:19.524Z,99282.31
2023-01-29T10:24:00.581Z,99294.13
2023-01-29T10:26:28.650Z,99294.91
2023-01-29T10:28:58.528Z,99288.16
2023-01-29T10:31:30.712Z,99280.31
2023-01-29T10:34:07.211Z,99270.91
2023-01-29T10:36:43.252Z,99276.59
2023-01-29T10:39:16.451Z,99287.88
2023-01-29T10:42:04.013Z,99284.03
2023-01-29T10:45:00.364Z,99293.59
2023-01-29T10:48:09.473Z,99310.38
2023-01-29T10:50:52.121Z,99306.72
2023-01-29T10:53:24.658Z,99301.91
2023-01-29T10:56:22.647Z,99301.44
2023-01-29T10:58:53.568Z,99281.72
2023-01-29T11:01:19.905Z,99283.28
2023-01-29T11:03:54.886Z,99271.13
2023-01-29T11:06:24.739Z,99271.84
2023-01-29T11:09:09.880Z,99264.50
2023-01-29T11:12:01.138Z,99249.16
2023-01-29T11:14:32.832Z,99238.28
2023-01-29T11:16:59.297Z,99233.16
2023-01-29T11:19:40.827Z,99238.91
2023-01-29T11:22:14.825Z,99236.41
2023-01-29T11:24:41.231Z,99221.03
2023-01-29T11:27:25.711Z,99214.16
2023-01-29T11:29:53.466Z,99209.19
2023-01-29T11:32:22.806Z,99192.38
2023-01-29T11:34:58.146Z,99196.41
2023-01-29T11:37:32.616Z,99193.63
2023-01-29T11:39:59.004Z,99182.97
2023-01-29T11:42:31.492Z,99170.28
2023-01-29T11:44:57.791Z,99168.34
2023-01-29T11:47:29.437Z,99167.53
2023-01-29T11:49:58.117Z,99166.94
2023-01-29T11:52:33.938Z,99159.31
2023-01-29T11:55:07.403Z,99162.25
2023-01-29T11:57:38.277Z,99162.69
2023-01-29T12:00:07.824Z,99155.88
2023-01-29T12:02:43.202Z,99150.91
2023-01-29T12:05:18.269Z,99152.94
2023-01-29T12:07:48.425Z,99153.38
2023-01-29T12:10:33.365Z,99149.75
2023-01-29T12:13:10.072Z,99149.88
2023-01-29T12:15:40.968Z,99136.56
2023-01-29T12:18:29.066Z,99127.38
2023-01-29T12:21:05.377Z,99132.47
2023-01-29T12:23:41.035Z,99129.00
2023-01-29T12:26:16.251Z,99121.97
2023-01-29T12:29:07.041Z,99122.31
2023-01-29T12:32:05.360Z,99111.44
2023-01-29T12:34:37.710Z,99101.19
2023-01-29T12:37:20.947Z,99101.63
2023-01-29T12:39:49.398Z,99106.28
2023-01-29T12:42:19.811Z,99099.22
2023-01-29T12:45:01.471Z,99098.47
2023-01-29T12:47:42.574Z,99085.66
2023-01-29T12:50:24.087Z,99088.72
2023-01-29T12:52:56.594Z,99071.97
2023-01-29T12:55:27.803Z,99074.59
2023-01-29T12:57:59.795Z,99067.56
2023-01-29T13:00:29.743Z,99059.56
2023-01-29T13:03:20.875Z,99060.22
2023-01-29T13:05:52.126Z,99067.00
2023-01-29T13:08:32.463Z,99068.22
2023-01-29T13:11:02.773Z,99070.69
2023-01-29T13:13:54.113Z,99070.63
2023-01-29T13:16:25.916Z,99066.88
2023-01-29T13:19:02.450Z,99065.44
2023-01-29T13:21:37.074Z,99072.53
2023-01-29T13:24:09.893Z,99068.69
2023-01-29T13:26:37.292Z,99063.81
2023-01-29T13:29:04.053Z,99064.63
2023-01-29T13:31:39.700Z,99071.06
2023-01-29T13:34:20.852Z,99067.53
2023-01-29T13:36:57.224Z,99065.78
2023-01-29T13:39:35.196Z,99053.47
2023-01-29T13:42:14.324Z,99059.97
2023-01-29T13:44:40.932Z,99058.31
2023-01-29T13:47:09.945Z,99049.59
2023-01-29T13:49:43.095Z,99045.03
2023-01-29T13:52:35.676Z,99045.44
2023-01-29T13:55:32.886Z,99043.34
2023-01-29T13:58:04.369Z,99045.56
2023-01-29T14:00:33.812Z,99036.72
2023-01-29T14:03:00.154Z,99032.72
2023-01-29T14:05:29.459Z,99033.81
2023-01-29T14:08:03.437Z,99033.00
2023-01-29T14:10:30.734Z,99043.47
2023-01-29T14:13:03.089Z,99044.88
2023-01-29T14:15:32.886Z,99045.25
2023-01-29T14:18:08.423Z,99049.44
2023-01-29T14:20:46.077Z,99057.88
2023-01-29T14:23:39.803Z,99039.38
2023-01-29T14:26:21.122Z,99036.72
2023-01-29T14:29:01.198Z,99028.41
2023-01-29T14:31:32.075Z,99022.72
2023-01-29T14:34:04.947Z,99018.88
2023-01-29T14:36:40.278Z,99016.66
2023-01-29T14:39:17.474Z,99021.09
2023-01-29T14:41:43.848Z,99015.94
2023-01-29T14:44:44.130Z,99020.78
2023-01-29T14:47:19.249Z,99022.44
2023-01-29T14:49:51.561Z,99026.03
2023-01-29T14:52:22.739Z,99023.56
2023-01-29T14:54:51.145Z,99024.81
2023-01-29T14:57:18.095Z,99018.75
2023-01-29T14:59:53.222Z,99022.59
2023-01-29T15:02:24.297Z,99014.03
2023-01-29T15:04:58.260Z,99019.00
2023-01-29T15:07:44.104Z,99011.66
2023-01-29T15:10:23.084Z,99019.00
2023-01-29T15:12:54.659Z,99004.22
2023-01-29T15:15:36.312Z,99000.75
2023-01-29T15:18:29.036Z,98997.56
2023-01-29T15:21:04.914Z,98998.38
2023-01-29T15:23:34.125Z,99004.47
2023-01-29T15:26:03.482Z,99001.84
2023-01-29T15:28:31.728Z,98999.06
2023-01-29T15:31:01.012Z,98991.75
2023-01-29T15:33:28.544Z,98991.31
2023-01-29T15:36:06.954Z,98988.00
2023-01-29T15:38:36.616Z,98991.16
2023-01-29T15:41:16.339Z,98985.34
2023-01-29T15:43:55.874Z,98984.66
2023-01-29T15:46:26.876Z,98981.75
2023-01-29T15:48:55.905Z,98979.53
2023-01-29T15:51:27.155Z,98975.53
2023-01-29T15:54:03.483Z,98973.56
2023-01-29T15:56:50.177Z,98985.84
2023-01-29T15:59:22.374Z,98985.56
2023-01-29T16:01:48.830Z,98987.75
2023-01-29T16:04:20.560Z,98986.38
2023-01-29T16:06:47.887Z,98982.72
2023-01-29T16:09:25.853Z,98986.84
2023-01-29T16:11:54.318Z,98983.81
2023-01-29T16:14:24.275Z,98979.88
2023-01-29T16:16:51.957Z,98984.00
2023-01-29T16:19:27.611Z,98983.84
2023-01-29T16:22:01.322Z,98984.38
2023-01-29T16:24:29.258Z,98982.94
2023-01-29T16:27:07.187Z,98978.94
2023-01-29T16:29:34.564Z,98974.22
2023-01-29T16:32:02.317Z,98967.00
2023-01-29T16:34:38.525Z,98976.88
2023-01-29T16:37:16.094Z,98976.19
2023-01-29T16:39:47.286Z,98977.66
2023-01-29T16:42:13.584Z,98973.66
2023-01-29T16:44:45.439Z,98979.97
2023-01-29T16:47:14.413Z,98965.72
2023-01-29T16:49:45.783Z,98970.75
2023-01-29T16:52:23.878Z,98978.03
2023-01-29T16:54:50.415Z,98967.00
2023-01-29T16:57:24.574Z,98968.06
2023-01-29T16:59:55.289Z,98968.47
2023-01-29T17:02:31.399Z,98968.69
2023-01-29T17:05:01.697Z,98961.91
2023-01-29T17:07:28.905Z,98961.34
2023-01-29T17:09:59.656Z,98969.31
2023-01-29T17:12:28.399Z,98961.84
2023-01-29T17:15:01.916Z,98960.19
2023-01-29T17:17:33.968Z,98964.72
2023-01-29T17:20:12.229Z,98960.69
2023-01-29T17:22:38.606Z,98962.63
2023-01-29T17:25:05.364Z,98964.88
2023-01-29T17:27:31.881Z,98962.38
2023-01-29T17:29:58.622Z,98955.22
2023-01-29T17:32:25.338Z,98947.25
2023-01-29T17:35:15.126Z,98954.16
2023-01-29T17:37:41.888Z,98943.56
2023-01-29T17:40:29.753Z,98938.56
2023-01-29T17:42:56.017Z,98947.25
2023-01-29T17:45:22.305Z,98946.56
2023-01-29T17:47:48.600Z,98939.19
2023-01-29T17:50:22.489Z,98950.19
2023-01-29T17:52:49.718Z,98948.84
2023-01-29T17:55:16.796Z,98950.69
2023-01-29T17:57:43.356Z,98946.66
2023-01-29T18:00:13.701Z,98940.59
2023-01-29T18:02:40.011Z,98948.09
2023-01-29T18:05:06.631Z,98950.38
2023-01-29T18:07:32.971Z,98943.03
2023-01-29T18:09:59.247Z,98956.50
2023-01-29T18:12:25.740Z,98952.34
2023-01-29T18:14:52.021Z,98955.19
2023-01-29T18:17:18.733Z,98959.00
2023-01-29T18:19:45.060Z,98951.53
2023-01-29T18:22:11.366Z,98958.91
2023-01-29T18:24:37.682Z,98953.44
2023-01-29T18:27:04.085Z,98959.41
2023-01-29T18:29:30.447Z,98955.16
2023-01-29T18:31:56.843Z,98957.78
2023-01-29T18:34:23.218Z,98963.03
2023-01-29T18:36:49.635Z,98955.41
2023-01-29T18:39:16.476Z,98963.59
2023-01-29T18:41:42.971Z,98958.88
2023-01-29T18:44:10.570Z,98957.53
2023-01-29T18:46:36.922Z,98953.38
2023-01-29T18:49:03.372Z,98963.94
2023-01-29T18:51:29.694Z,98968.34
2023-01-29T18:53:56.070Z,98963.09
2023-01-29T18:56:22.418Z,98964.88
2023-01-29T18:58:52.380Z,98969.53
2023-01-29T19:01:22.138Z,98969.75
2023-01-29T19:03:48.506Z,98969.03
2023-01-29T19:06:14.864Z,98966.16
2023-01-29T19:08:41.477Z,98964.50
2023-01-29T19:11:07.775Z,98971.03
2023-01-29T19:13:36.337Z,98976.38
2023-01-29T19:16:06.424Z,98975.66
2023-01-29T19:18:32.694Z,98976.13
2023-01-29T19:20:58.997Z,98979.06
2023-01-29T19:23:25.545Z,98978.44
2023-01-29T19:25:51.876Z,98977.00
2023-01-29T19:28:18.171Z,98967.63
2023-01-29T19:30:44.575Z,98969.41
2023-01-29T19:33:11.053Z,98973.09
2023-01-29T19:35:37.490Z,98963.81
2023-01-29T19:38:04.561Z,98959.44
2023-01-29T19:40:30.881Z,98969.28
2023-01-29T19:42:57.439Z,98963.44
2023-01-29T19:45:48.891Z,98953.94
2023-01-29T19:48:10.153Z,98954.03
2023-01-29T19:50:36.719Z,98952.38
2023-01-29T19:53:03.154Z,98952.38
2023-01-29T19:55:29.444Z,98949.28
2023-01-29T19:57:55.760Z,98946.91
2023-01-29T20:00:22.221Z,98940.13
2023-01-29T20:02:48.513Z,98942.84
2023-01-29T20:05:15.552Z,98942.25
2023-01-29T20:07:42.474Z,98938.09
2023-01-29T20:10:10.330Z,98933.94
2023-01-29T20:12:37.951Z,98929.56
2023-01-29T20:15:04.652Z,98920.78
2023-01-29T20:17:30.935Z,98926.00
2023-01-29T20:19:57.248Z,98920.16
2023-01-29T20:22:23.535Z,98913.16
2023-01-29T20:24:49.838Z,98916.59
2023-01-29T20:27:16.180Z,98913.25
2023-01-29T20:29:42.476Z,98905.56
2023-01-29T20:32:08.824Z,98904.84
2023-01-29T20:34:35.544Z,98899.72
2023-01-29T20:37:02.021Z,98905.06
2023-01-29T20:39:28.465Z,98898.31
2023-01-29T20:41:54.820Z,98903.50
2023-01-29T20:44:21.243Z,98907.06
2023-01-29T20:46:47.524Z,98908.84
2023-01-29T20:49:13.839Z,98910.75
2023-01-29T20:51:40.186Z,98903.03
2023-01-29T20:54:06.547Z,98897.22
2023-01-29T20:56:36.058Z,98900.13
2023-01-29T20:59:06.208Z,98895.97
2023-01-29T21:01:32.728Z,98893.69
2023-01-29T21:03:59.042Z,98891.19
2023-01-29T21:06:25.371Z,98895.59
2023-01-29T21:08:51.654Z,98890.50
2023-01-29T21:11:18.101Z,98885.50
2023-01-29T21:13:44.390Z,98895.22
2023-01-29T21:16:10.783Z,98892.94
2023-01-29T21:18:37.311Z,98897.50
2023-01-29T21:21:03.852Z,98898.06
2023-01-29T21:23:30.128Z,98889.53
2023-01-29T21:26:04.104Z,98889.03
2023-01-29T21:28:30.660Z,98898.63
2023-01-29T21:31:05.297Z,98894.25
2023-01-29T21:33:31.608Z,98900.06
2023-01-29T21:36:01.914Z,98899.47
2023-01-29T21:38:28.270Z,98896.25
2023-01-29T21:41:03.256Z,98898.03
2023-01-29T21:43:29.642Z,98899.97
2023-01-29T21:45:58.231Z,98905.31
2023-01-29T21:48:25.257Z,98914.91
2023-01-29T21:50:52.413Z,98923.06
2023-01-29T21:53:19.327Z,98917.34
2023-01-29T21:55:46.265Z,98915.88
2023-01-29T21:58:14.407Z,98917.66
2023-01-29T22:00:41.014Z,98908.69
2023-01-29T22:03:07.301Z,98905.25
2023-01-29T22:05:33.991Z,98901.59
2023-01-29T22:08:00.376Z,98908.69
2023-01-29T22:10:26.867Z,98908.69
2023-01-29T22:12:53.195Z,98906.91
2023-01-29T22:15:20.323Z,98902.53
2023-01-29T22:17:47.513Z,98897.31
2023-01-29T22:20:14.628Z,98889.63
2023-01-29T22:22:41.047Z,98883.06
2023-01-29T22:25:08.178Z,98880.69
2023-01-29T22:27:34.786Z,98871.22
2023-01-29T22:30:01.264Z,98862.63
2023-01-29T22:32:27.659Z,98853.16
2023-01-29T22:34:53.993Z,98855.66
2023-01-29T22:37:20.410Z,98842.03
2023-01-29T22:39:46.740Z,98827.56
2023-01-29T22:42:13.069Z,98830.16
2023-01-29T22:44:39.424Z,98820.69
2023-01-29T22:47:05.770Z,98804.44
2023-01-29T22:49:32.093Z,98804.44
2023-01-29T22:51:58.439Z,98796.63
2023-01-29T22:54:24.736Z,98774.97
2023-01-29T22:56:51.015Z,98766.66
2023-01-29T22:59:17.318Z,98756.66
2023-01-29T23:01:43.660Z,98751.06
2023-01-29T23:04:10.061Z,98747.63
2023-01-29T23:06:36.435Z,98740.66
2023-01-29T23:09:02.786Z,98733.78
2023-01-29T23:11:29.065Z,98722.66
2023-01-29T23:13:55.350Z,98718.38
2023-01-29T23:16:26.246Z,98724.66
2023-01-29T23:18:55.151Z,98735.06
2023-01-29T23:21:23.218Z,98728.91
2023-01-29T23:23:49.682Z,98727.97
2023-01-29T23:26:15.959Z,98731.41
2023-01-29T23:28:42.966Z,98727.84
2023-01-29T23:31:09.408Z,98728.59
2023-01-29T23:33:35.754Z,98716.28
2023-01-29T23:36:02.114Z,98720.53
2023-01-29T23:38:28.396Z,98714.28
2023-01-29T23:40:54.726Z,98698.78
2023-01-29T23:43:21.102Z,98706.59
2023-01-29T23:45:47.466Z,98699.72
2023-01-29T23:48:13.741Z,98687.75
2023-01-29T23:50:40.044Z,98695.44
2023-01-29T23:53:06.319Z,98687.88
2023-01-29T23:55:32.606Z,98689.03
2023-01-29T23:57:58.976Z,98677.56
